createdAt,value
2019-04-14T00:01:41.242Z,2.80
2019-04-14T00:04:18.221Z,2.80
2019-04-14T00:06:48.951Z,2.80
2019-04-14T00:09:20.635Z,2.80
2019-04-14T00:11:52.570Z,2.80
2019-04-14T00:14:25.009Z,2.80
2019-04-14T00:16:55.802Z,2.80
2019-04-14T00:19:26.421Z,2.90
2019-04-14T00:22:00.895Z,2.90
2019-04-14T00:24:31.465Z,2.90
2019-04-14T00:27:04.231Z,2.90
2019-04-14T00:29:35.094Z,2.90
2019-04-14T00:32:05.861Z,2.90
2019-04-14T00:34:48.544Z,2.80
2019-04-14T00:37:31.596Z,2.80
2019-04-14T00:40:23.610Z,2.90
2019-04-14T00:43:16.245Z,2.90
2019-04-14T00:46:09.950Z,2.90
2019-04-14T00:48:40.980Z,2.90
2019-04-14T00:51:13.398Z,2.90
2019-04-14T00:53:44.607Z,2.90
2019-04-14T00:56:15.297Z,2.90
2019-04-14T00:58:45.848Z,2.90
2019-04-14T01:01:17.560Z,3.00
2019-04-14T01:03:48.322Z,3.00
2019-04-14T01:06:18.974Z,2.90
2019-04-14T01:08:49.598Z,3.00
2019-04-14T01:11:20.364Z,2.90
2019-04-14T01:13:51.024Z,2.80
2019-04-14T01:16:23.869Z,2.90
2019-04-14T01:18:55.859Z,2.90
2019-04-14T01:21:26.551Z,2.90
2019-04-14T01:23:57.185Z,3.00
2019-04-14T01:26:28.823Z,3.00
2019-04-14T01:28:59.605Z,3.00
2019-04-14T01:31:30.232Z,3.00
2019-04-14T01:34:01.856Z,3.10
2019-04-14T01:36:32.752Z,3.00
2019-04-14T01:39:04.690Z,3.00
2019-04-14T01:41:36.791Z,2.90
2019-04-14T01:44:07.406Z,2.90
2019-04-14T01:46:39.094Z,2.90
2019-04-14T01:49:09.843Z,2.90
2019-04-14T01:51:46.348Z,3.00
2019-04-14T01:54:47.260Z,2.90
2019-04-14T01:57:32.887Z,2.90
2019-04-14T02:00:22.745Z,2.80
2019-04-14T02:02:55.365Z,2.90
2019-04-14T02:05:26.080Z,2.90
2019-04-14T02:07:57.915Z,2.90
2019-04-14T02:10:28.629Z,2.90
2019-04-14T02:13:00.544Z,2.90
2019-04-14T02:15:31.370Z,2.90
2019-04-14T02:18:03.129Z,2.90
2019-04-14T02:20:33.989Z,2.80
2019-04-14T02:23:05.966Z,2.80
2019-04-14T02:25:36.649Z,2.80
2019-04-14T02:28:07.217Z,2.80
2019-04-14T02:30:44.360Z,2.90
2019-04-14T02:36:14.720Z,2.80
2019-04-14T02:39:01.791Z,2.80
2019-04-14T02:41:24.192Z,2.80
2019-04-14T02:48:52.229Z,2.80
2019-04-14T02:57:17.474Z,3.00
2019-04-14T02:59:49.691Z,2.90
2019-04-14T03:05:08.110Z,2.80
2019-04-14T03:10:10.515Z,2.80
2019-04-14T03:15:01.462Z,2.70
2019-04-14T03:17:58.570Z,2.70
2019-04-14T03:23:05.018Z,2.70
2019-04-14T03:25:53.109Z,2.70
2019-04-14T03:28:32.991Z,2.70
2019-04-14T03:34:07.448Z,2.80
2019-04-14T03:36:47.713Z,2.70
2019-04-14T03:38:54.974Z,2.70
2019-04-14T03:41:24.198Z,2.70
2019-04-14T03:44:01.236Z,2.60
2019-04-14T03:46:25.374Z,2.60
2019-04-14T03:48:58.442Z,2.60
2019-04-14T03:51:37.089Z,2.60
2019-04-14T03:53:58.715Z,2.60
2019-04-14T03:56:42.139Z,2.60
2019-04-14T03:59:15.089Z,2.60
2019-04-14T04:01:46.097Z,2.70
2019-04-14T04:04:16.642Z,2.60
2019-04-14T04:06:48.467Z,2.70
2019-04-14T04:09:21.448Z,2.70
2019-04-14T04:11:52.124Z,2.70
2019-04-14T04:14:22.718Z,2.70
2019-04-14T04:17:21.919Z,2.60
2019-04-14T04:20:11.185Z,2.70
2019-04-14T04:22:59.492Z,2.70
2019-04-14T04:25:38.624Z,2.80
2019-04-14T04:28:27.837Z,2.70
2019-04-14T04:31:04.543Z,2.70
2019-04-14T04:33:52.285Z,2.70
2019-04-14T04:36:46.123Z,2.70
2019-04-14T04:39:26.445Z,2.70
2019-04-14T04:41:57.947Z,2.70
2019-04-14T04:44:29.689Z,2.70
2019-04-14T04:47:01.189Z,2.70
2019-04-14T04:49:32.891Z,2.70
2019-04-14T04:52:04.214Z,2.70
2019-04-14T04:54:34.820Z,2.70
2019-04-14T04:57:06.766Z,2.70
2019-04-14T04:59:38.732Z,2.70
2019-04-14T05:02:09.461Z,2.70
2019-04-14T05:04:40.081Z,2.70
2019-04-14T05:07:10.640Z,2.70
2019-04-14T05:10:04.742Z,2.70
2019-04-14T05:12:58.584Z,2.80
2019-04-14T05:15:48.958Z,2.70
2019-04-14T05:18:22.232Z,2.80
2019-04-14T05:20:53.299Z,2.80
2019-04-14T05:23:24.035Z,2.80
2019-04-14T05:25:55.952Z,2.90
2019-04-14T05:28:26.809Z,2.90
2019-04-14T05:30:57.468Z,2.90
2019-04-14T05:33:29.250Z,3.00
2019-04-14T05:35:59.981Z,3.10
2019-04-14T05:38:32.690Z,3.10
2019-04-14T05:41:02.835Z,3.10
2019-04-14T05:43:41.589Z,3.20
2019-04-14T05:46:05.665Z,3.20
2019-04-14T05:48:36.200Z,3.10
2019-04-14T05:51:06.833Z,3.20
2019-04-14T05:53:37.427Z,3.20
2019-04-14T05:56:08.043Z,3.30
2019-04-14T05:58:38.622Z,3.40
2019-04-14T06:01:11.218Z,3.50
2019-04-14T06:03:43.146Z,3.50
2019-04-14T06:06:13.878Z,3.60
2019-04-14T06:08:44.483Z,3.90
2019-04-14T06:11:16.271Z,4.20
2019-04-14T06:13:47.980Z,4.30
2019-04-14T06:16:18.608Z,5.00
2019-04-14T06:18:50.209Z,5.10
2019-04-14T06:21:20.883Z,5.70
2019-04-14T06:23:51.441Z,5.40
2019-04-14T06:26:22.024Z,4.80
2019-04-14T06:28:52.549Z,4.60
2019-04-14T06:31:54.013Z,4.50
2019-04-14T06:34:55.765Z,4.50
2019-04-14T06:37:31.944Z,4.20
2019-04-14T06:40:04.205Z,4.10
2019-04-14T06:42:34.900Z,4.00
2019-04-14T06:45:05.720Z,4.10
2019-04-14T06:47:36.353Z,4.30
2019-04-14T06:50:07.069Z,4.30
2019-04-14T06:52:37.636Z,4.30
2019-04-14T06:55:08.280Z,4.30
2019-04-14T06:57:38.917Z,4.30
2019-04-14T07:00:09.629Z,4.40
2019-04-14T07:02:40.265Z,4.20
2019-04-14T07:05:10.938Z,4.20
2019-04-14T07:07:41.569Z,4.30
2019-04-14T07:10:12.174Z,4.50
2019-04-14T07:12:43.220Z,4.40
2019-04-14T07:15:14.306Z,4.50
2019-04-14T07:17:44.935Z,4.60
2019-04-14T07:20:15.557Z,4.50
2019-04-14T07:22:46.205Z,4.60
2019-04-14T07:25:16.830Z,4.70
2019-04-14T07:27:47.535Z,4.90
2019-04-14T07:30:34.305Z,5.00
2019-04-14T07:33:30.007Z,5.10
2019-04-14T07:36:27.551Z,6.30
2019-04-14T07:39:13.449Z,6.30
2019-04-14T07:41:50.370Z,6.60
2019-04-14T07:44:49.985Z,6.60
2019-04-14T07:47:39.782Z,6.00
2019-04-14T07:50:17.263Z,5.90
2019-04-14T07:53:07.015Z,6.20
2019-04-14T07:55:41.965Z,6.10
2019-04-14T07:58:25.933Z,6.00
2019-04-14T08:00:59.604Z,6.00
2019-04-14T08:03:48.380Z,6.70
2019-04-14T08:06:19.296Z,6.80
2019-04-14T08:08:49.953Z,6.80
2019-04-14T08:11:20.707Z,6.80
2019-04-14T08:13:51.341Z,7.30
2019-04-14T08:16:21.945Z,7.50
2019-04-14T08:18:52.574Z,7.50
2019-04-14T08:21:23.118Z,7.70
2019-04-14T08:23:53.754Z,7.70
2019-04-14T08:26:26.425Z,8.30
2019-04-14T08:28:57.097Z,7.40
2019-04-14T08:31:27.783Z,7.40
2019-04-14T08:33:58.442Z,7.80
2019-04-14T08:36:29.072Z,8.00
2019-04-14T08:38:59.816Z,8.00
2019-04-14T08:41:36.768Z,8.20
2019-04-14T08:44:15.552Z,8.40
2019-04-14T08:47:20.571Z,8.70
2019-04-14T08:49:54.213Z,9.70
2019-04-14T08:52:28.402Z,10.30
2019-04-14T08:55:07.254Z,9.70
2019-04-14T08:57:42.911Z,8.60
2019-04-14T09:00:23.252Z,8.60
2019-04-14T09:03:15.922Z,8.50
2019-04-14T09:06:01.095Z,8.50
2019-04-14T09:08:52.476Z,7.70
2019-04-14T09:11:29.504Z,7.20
2019-04-14T09:14:00.140Z,7.20
2019-04-14T09:16:30.822Z,8.10
2019-04-14T09:19:07.727Z,8.10
2019-04-14T09:21:35.798Z,8.40
2019-04-14T09:24:06.433Z,8.30
2019-04-14T09:26:37.050Z,8.30
2019-04-14T09:29:07.689Z,8.60
2019-04-14T09:31:38.310Z,9.10
2019-04-14T09:34:09.241Z,8.90
2019-04-14T09:36:39.933Z,9.10
2019-04-14T09:39:10.489Z,8.80
2019-04-14T09:41:41.390Z,9.40
2019-04-14T09:44:12.256Z,9.60
2019-04-14T09:46:42.875Z,10.70
2019-04-14T09:49:13.521Z,11.00
2019-04-14T09:51:44.206Z,10.40
2019-04-14T09:54:14.925Z,10.60
2019-04-14T09:56:45.570Z,11.60
2019-04-14T09:59:16.228Z,12.40
2019-04-14T10:01:46.925Z,12.30
2019-04-14T10:04:17.681Z,12.20
2019-04-14T10:06:48.227Z,12.90
2019-04-14T10:09:19.007Z,14.00
2019-04-14T10:11:53.487Z,13.60
2019-04-14T10:16:51.821Z,13.10
2019-04-14T10:21:52.284Z,12.60
2019-04-14T10:24:22.923Z,12.60
2019-04-14T10:26:53.525Z,11.40
2019-04-14T10:29:24.309Z,11.30
2019-04-14T10:34:24.891Z,11.70
2019-04-14T10:36:55.525Z,11.90
2019-04-14T10:39:27.246Z,11.90
2019-04-14T10:41:57.862Z,11.90
2019-04-14T10:44:28.572Z,11.40
2019-04-14T10:46:59.108Z,11.30
2019-04-14T10:49:29.689Z,11.40
2019-04-14T10:52:00.241Z,11.50
2019-04-14T10:54:30.894Z,11.60
2019-04-14T10:59:32.094Z,11.70
2019-04-14T11:02:02.912Z,11.60
2019-04-14T11:04:33.687Z,11.30
2019-04-14T11:07:21.669Z,11.10
2019-04-14T11:09:53.906Z,11.30
2019-04-14T11:12:24.724Z,11.50
2019-04-14T11:14:55.323Z,11.80
2019-04-14T11:17:26.003Z,11.70
2019-04-14T11:19:56.662Z,11.70
2019-04-14T11:22:27.329Z,12.20
2019-04-14T11:24:57.969Z,12.60
2019-04-14T11:27:28.573Z,12.10
2019-04-14T11:29:59.192Z,11.40
2019-04-14T11:32:42.986Z,11.00
2019-04-14T11:35:18.162Z,10.60
2019-04-14T11:38:06.605Z,11.10
2019-04-14T11:40:41.949Z,11.30
2019-04-14T11:43:12.555Z,11.30
2019-04-14T11:45:43.269Z,11.30
2019-04-14T11:48:14.002Z,11.30
2019-04-14T11:50:44.671Z,11.30
2019-04-14T11:53:15.290Z,12.10
2019-04-14T11:55:46.826Z,12.30
2019-04-14T11:58:17.471Z,11.80
2019-04-14T12:01:01.873Z,11.80
2019-04-14T12:04:09.860Z,11.80
2019-04-14T12:07:02.708Z,11.80
2019-04-14T12:09:54.920Z,12.00
2019-04-14T12:12:25.577Z,11.90
2019-04-14T12:14:56.207Z,11.70
2019-04-14T12:19:56.769Z,11.80
2019-04-14T12:22:27.421Z,12.10
2019-04-14T12:24:58.046Z,12.10
2019-04-14T12:27:28.764Z,12.60
2019-04-14T12:29:59.470Z,12.60
2019-04-14T12:32:30.799Z,11.70
2019-04-14T12:35:01.431Z,12.00
2019-04-14T12:37:32.061Z,11.90
2019-04-14T12:40:02.832Z,11.80
2019-04-14T12:42:49.293Z,11.80
2019-04-14T12:45:48.029Z,11.70
2019-04-14T12:48:29.886Z,11.70
2019-04-14T12:51:04.189Z,11.70
2019-04-14T12:53:34.906Z,11.60
2019-04-14T12:56:05.538Z,11.90
2019-04-14T12:58:52.677Z,12.00
2019-04-14T13:01:23.865Z,11.50
2019-04-14T13:03:54.577Z,11.50
2019-04-14T13:06:25.605Z,11.80
2019-04-14T13:08:56.228Z,11.90
2019-04-14T13:11:26.910Z,11.80
2019-04-14T13:13:57.554Z,11.90
2019-04-14T13:16:28.191Z,12.00
2019-04-14T13:18:58.913Z,12.10
2019-04-14T13:21:29.480Z,12.10
2019-04-14T13:24:00.141Z,11.80
2019-04-14T13:26:30.778Z,11.70
2019-04-14T13:29:01.625Z,11.90
2019-04-14T13:31:32.228Z,11.50
2019-04-14T13:34:02.789Z,11.60
2019-04-14T13:36:33.338Z,12.40
2019-04-14T13:39:06.388Z,12.40
2019-04-14T13:41:37.424Z,12.00
2019-04-14T13:44:08.080Z,12.10
2019-04-14T13:46:38.791Z,12.30
2019-04-14T13:49:09.413Z,12.30
2019-04-14T13:51:39.950Z,12.40
2019-04-14T13:54:11.671Z,12.50
2019-04-14T13:56:42.325Z,12.70
2019-04-14T13:59:13.042Z,12.80
2019-04-14T14:01:43.670Z,12.50
2019-04-14T14:04:14.305Z,12.50
2019-04-14T14:06:44.922Z,12.30
2019-04-14T14:09:15.590Z,12.40
2019-04-14T14:12:14.092Z,13.00
2019-04-14T14:15:03.751Z,12.20
2019-04-14T14:18:08.905Z,12.30
2019-04-14T14:20:58.574Z,12.20
2019-04-14T14:23:40.035Z,12.00
2019-04-14T14:26:12.938Z,11.90
2019-04-14T14:28:43.490Z,12.20
2019-04-14T14:31:14.190Z,12.40
2019-04-14T14:33:45.432Z,12.30
2019-04-14T14:36:16.251Z,12.60
2019-04-14T14:38:46.874Z,12.70
2019-04-14T14:41:18.472Z,12.90
2019-04-14T14:43:49.908Z,13.00
2019-04-14T14:46:39.124Z,12.60
2019-04-14T14:49:14.504Z,12.50
2019-04-14T14:51:53.338Z,12.20
2019-04-14T14:54:24.036Z,12.20
2019-04-14T14:56:54.686Z,12.60
2019-04-14T14:59:25.241Z,12.60
2019-04-14T15:01:55.861Z,12.70
2019-04-14T15:04:26.572Z,12.20
2019-04-14T15:06:57.198Z,11.90
2019-04-14T15:09:27.756Z,11.90
2019-04-14T15:11:58.399Z,12.10
2019-04-14T15:14:29.037Z,12.10
2019-04-14T15:16:59.671Z,12.00
2019-04-14T15:19:30.315Z,12.10
2019-04-14T15:22:00.941Z,11.90
2019-04-14T15:24:31.581Z,11.80
2019-04-14T15:27:02.205Z,11.10
2019-04-14T15:29:32.778Z,11.20
2019-04-14T15:32:03.399Z,11.10
2019-04-14T15:34:34.025Z,11.00
2019-04-14T15:37:04.656Z,11.10
2019-04-14T15:39:37.513Z,11.30
2019-04-14T15:42:07.555Z,11.30
2019-04-14T15:44:38.205Z,11.50
2019-04-14T15:47:08.849Z,11.10
2019-04-14T15:49:39.567Z,11.30
2019-04-14T15:52:10.110Z,11.20
2019-04-14T15:54:40.837Z,11.00
2019-04-14T15:57:39.734Z,10.90
2019-04-14T16:00:35.318Z,10.50
2019-04-14T16:03:28.789Z,10.40
2019-04-14T16:06:15.833Z,9.90
2019-04-14T16:09:08.533Z,10.20
2019-04-14T16:11:57.645Z,10.30
2019-04-14T16:14:51.933Z,10.30
2019-04-14T16:17:38.197Z,10.40
2019-04-14T16:20:15.407Z,10.30
2019-04-14T16:22:46.113Z,10.20
2019-04-14T16:25:16.899Z,10.20
2019-04-14T16:28:02.845Z,9.80
2019-04-14T16:30:49.770Z,9.80
2019-04-14T16:33:32.054Z,9.80
2019-04-14T16:36:02.763Z,10.00
2019-04-14T16:38:33.467Z,10.00
2019-04-14T16:41:04.273Z,9.90
2019-04-14T16:43:34.805Z,9.70
2019-04-14T16:46:05.445Z,9.60
2019-04-14T16:48:37.066Z,9.40
2019-04-14T16:51:09.521Z,9.30
2019-04-14T16:53:42.012Z,9.30
2019-04-14T16:56:30.371Z,9.10
2019-04-14T16:59:10.721Z,9.10
2019-04-14T17:01:43.738Z,8.90
2019-04-14T17:04:14.360Z,8.80
2019-04-14T17:06:44.989Z,8.90
2019-04-14T17:09:15.611Z,8.80
2019-04-14T17:11:47.383Z,8.70
2019-04-14T17:14:24.519Z,8.60
2019-04-14T17:17:12.073Z,8.50
2019-04-14T17:19:50.584Z,8.50
2019-04-14T17:22:27.690Z,8.40
2019-04-14T17:25:14.925Z,8.30
2019-04-14T17:27:55.065Z,8.20
2019-04-14T17:30:32.869Z,8.10
2019-04-14T17:33:14.715Z,8.00
2019-04-14T17:36:10.438Z,7.90
2019-04-14T17:39:00.114Z,7.90
2019-04-14T17:41:48.969Z,7.80
2019-04-14T17:44:33.082Z,7.70
2019-04-14T17:47:21.638Z,7.70
2019-04-14T17:50:15.687Z,7.60
2019-04-14T17:52:51.142Z,7.50
2019-04-14T17:55:35.080Z,7.40
2019-04-14T17:58:19.118Z,7.30
2019-04-14T18:01:14.883Z,7.20
2019-04-14T18:03:51.104Z,7.20
2019-04-14T18:06:38.371Z,7.10
2019-04-14T18:09:18.239Z,7.10
2019-04-14T18:14:53.675Z,7.00
2019-04-14T18:17:52.582Z,6.90
2019-04-14T18:20:31.053Z,6.90
2019-04-14T18:23:02.772Z,6.80
2019-04-14T18:25:33.492Z,6.70
2019-04-14T18:28:20.566Z,6.70
2019-04-14T18:30:56.503Z,6.60
2019-04-14T18:33:46.222Z,6.50
2019-04-14T18:39:08.822Z,6.10
2019-04-14T18:41:53.758Z,5.90
2019-04-14T18:44:42.121Z,5.90
2019-04-14T18:47:41.073Z,6.00
2019-04-14T18:50:26.263Z,5.90
2019-04-14T18:53:09.545Z,6.00
2019-04-14T18:55:49.545Z,5.80
2019-04-14T18:58:54.249Z,5.70
2019-04-14T19:01:32.019Z,5.70
2019-04-14T19:04:02.738Z,5.50
2019-04-14T19:06:33.434Z,5.70
2019-04-14T19:09:05.809Z,5.60
2019-04-14T19:11:59.665Z,5.50
2019-04-14T19:14:33.205Z,5.50
2019-04-14T19:17:23.105Z,5.30
2019-04-14T19:20:01.411Z,5.20
2019-04-14T19:22:26.820Z,5.20
2019-04-14T19:27:29.082Z,5.10
2019-04-14T19:29:59.702Z,5.10
2019-04-14T19:32:30.409Z,5.10
2019-04-14T19:45:00.996Z,4.70
2019-04-14T19:47:31.659Z,4.70
2019-04-14T19:50:02.365Z,4.60
2019-04-14T19:52:32.958Z,4.60
2019-04-14T19:55:04.202Z,4.60
2019-04-14T19:57:34.773Z,4.30
2019-04-14T20:00:06.815Z,4.30
2019-04-14T20:05:07.643Z,4.10
2019-04-14T20:07:38.261Z,3.90
2019-04-14T20:10:10.635Z,3.80
2019-04-14T20:12:41.261Z,3.80
2019-04-14T20:17:53.499Z,3.60
2019-04-14T20:20:49.183Z,3.70
2019-04-14T20:23:37.860Z,3.50
2019-04-14T20:26:23.738Z,3.50
2019-04-14T20:29:12.209Z,3.40
2019-04-14T20:32:01.875Z,3.40
2019-04-14T20:34:33.591Z,3.40
2019-04-14T20:37:04.227Z,3.30
2019-04-14T20:39:34.948Z,3.30
2019-04-14T20:42:06.873Z,3.20
2019-04-14T20:44:37.506Z,3.10
2019-04-14T20:47:09.358Z,3.10
2019-04-14T20:49:40.069Z,3.10
2019-04-14T20:52:10.753Z,3.00
2019-04-14T20:54:41.334Z,3.00
2019-04-14T21:03:27.215Z,2.90
2019-04-14T21:06:16.820Z,2.80
2019-04-14T21:09:12.316Z,2.80
2019-04-14T21:11:57.970Z,2.70
2019-04-14T21:14:46.426Z,2.70
2019-04-14T21:17:23.274Z,2.70
2019-04-14T21:20:02.826Z,2.80
2019-04-14T21:22:37.019Z,2.70
2019-04-14T21:25:29.793Z,2.60
2019-04-14T21:28:09.614Z,2.60
2019-04-14T21:30:49.897Z,2.60
2019-04-14T21:33:43.309Z,2.40
2019-04-14T21:36:18.269Z,2.40
2019-04-14T21:38:58.867Z,2.30
2019-04-14T21:41:30.493Z,2.30
2019-04-14T21:44:02.121Z,2.30
2019-04-14T21:46:32.821Z,2.20
2019-04-14T21:49:03.433Z,1.90
2019-04-14T21:51:52.234Z,1.90
2019-04-14T21:54:23.025Z,1.90
2019-04-14T21:57:19.600Z,1.80
2019-04-14T22:00:24.342Z,1.80
2019-04-14T22:03:28.648Z,1.80
2019-04-14T22:06:08.433Z,1.70
2019-04-14T22:08:43.456Z,1.70
2019-04-14T22:11:17.780Z,1.90
2019-04-14T22:13:50.779Z,1.80
2019-04-14T22:16:20.636Z,1.90
2019-04-14T22:18:51.223Z,1.80
2019-04-14T22:21:21.774Z,1.70
2019-04-14T22:24:01.290Z,1.60
2019-04-14T22:26:26.285Z,1.50
2019-04-14T22:28:57.137Z,1.50
2019-04-14T22:31:27.789Z,1.40
2019-04-14T22:33:58.345Z,1.40
2019-04-14T22:36:28.905Z,1.40
2019-04-14T22:38:59.600Z,1.30
2019-04-14T22:41:30.186Z,1.40
2019-04-14T22:44:00.797Z,1.40
2019-04-14T22:46:31.439Z,1.40
2019-04-14T22:49:02.049Z,1.40
2019-04-14T22:51:32.681Z,1.40
2019-04-14T22:54:03.306Z,1.40
2019-04-14T22:56:39.566Z,1.20
2019-04-14T22:59:06.287Z,1.00
2019-04-14T23:01:38.573Z,1.00
2019-04-14T23:04:21.741Z,1.00
2019-04-14T23:07:10.238Z,0.90
2019-04-14T23:09:47.643Z,0.90
2019-04-14T23:12:32.122Z,0.90
2019-04-14T23:15:11.639Z,0.90
2019-04-14T23:18:04.082Z,1.00
2019-04-14T23:20:47.097Z,1.00
2019-04-14T23:23:31.997Z,1.10
2019-04-14T23:26:02.665Z,1.10
2019-04-14T23:28:33.283Z,1.10
2019-04-14T23:31:04.129Z,1.10
2019-04-14T23:33:34.773Z,1.00
2019-04-14T23:36:05.406Z,0.80
2019-04-14T23:38:36.138Z,0.80
2019-04-14T23:41:06.791Z,0.80
2019-04-14T23:43:37.422Z,0.70
2019-04-14T23:46:08.653Z,0.70
2019-04-14T23:48:39.314Z,0.60
2019-04-14T23:51:09.954Z,0.60
2019-04-14T23:53:40.582Z,0.60
2019-04-14T23:56:11.329Z,0.60
2019-04-14T23:58:41.949Z,0.50
